Time,TemperatureF,DewpointF,PressureIn,WindDirection,WindDirectionDegrees,WindSpeedMPH,WindSpeedGustMPH,Humidity,HourlyPrecipIn,Conditions,Clouds,dailyrainin,SoftwareType,DateUTC
2013-08-17 00:00:00,56.3,48.9,30.31,SSE,158,4.0,7.0,76,0.00,,,0.00,meteohub,2013-08-17 04:00:00,
2013-08-17 00:01:00,56.3,48.9,30.31,SSE,158,4.0,7.0,76,0.00,,,0.00,meteohub,2013-08-17 04:01:00,
2013-08-17 00:06:00,56.3,48.9,30.31,SSE,158,6.0,7.0,76,0.00,,,0.00,meteohub,2013-08-17 04:06:00,
2013-08-17 00:11:00,56.3,49.3,30.31,SSE,158,6.0,8.0,77,0.00,,,0.00,meteohub,2013-08-17 04:11:00,
2013-08-17 00:17:00,56.3,49.3,30.31,SE,135,4.0,8.0,77,0.00,,,0.00,meteohub,2013-08-17 04:17:00,
2013-08-17 00:22:00,56.3,49.3,30.31,SSE,158,6.0,8.0,77,0.00,,,0.00,meteohub,2013-08-17 04:22:00,
2013-08-17 00:27:00,56.1,49.3,30.31,SE,135,6.0,8.0,78,0.00,,,0.00,meteohub,2013-08-17 04:27:00,
2013-08-17 00:32:00,56.1,49.3,30.31,SSE,158,4.0,8.0,78,0.00,,,0.00,meteohub,2013-08-17 04:32:00,
2013-08-17 00:37:00,56.1,49.3,30.31,SSE,158,5.0,8.0,78,0.00,,,0.00,meteohub,2013-08-17 04:37:00,
2013-08-17 00:42:00,56.1,49.6,30.31,SSE,158,4.0,8.0,79,0.00,,,0.00,meteohub,2013-08-17 04:42:00,
2013-08-17 00:47:00,55.9,49.5,30.31,SSE,158,3.0,6.0,79,0.00,,,0.00,meteohub,2013-08-17 04:47:00,
2013-08-17 00:52:00,56.1,49.6,30.31,East,90,3.0,6.0,79,0.00,,,0.00,meteohub,2013-08-17 04:52:00,
2013-08-17 00:57:00,55.9,49.5,30.31,South,180,2.0,6.0,79,0.00,,,0.00,meteohub,2013-08-17 04:57:00,
2013-08-17 01:02:00,55.9,49.5,30.31,SSE,158,3.0,6.0,79,0.00,,,0.00,meteohub,2013-08-17 05:02:00,
2013-08-17 01:07:00,55.9,49.5,30.31,SSE,158,5.0,6.0,79,0.00,,,0.00,meteohub,2013-08-17 05:07:00,
2013-08-17 01:12:00,55.9,49.1,30.31,SSE,158,4.0,8.0,78,0.00,,,0.00,meteohub,2013-08-17 05:12:00,
2013-08-17 01:17:00,55.9,49.1,30.31,SSE,158,2.0,8.0,78,0.00,,,0.00,meteohub,2013-08-17 05:17:00,
2013-08-17 01:22:00,55.9,49.1,30.31,South,180,3.0,8.0,78,0.00,,,0.00,meteohub,2013-08-17 05:22:00,
2013-08-17 01:27:00,55.9,49.1,30.31,ESE,112,2.0,6.0,78,0.00,,,0.00,meteohub,2013-08-17 05:27:00,
2013-08-17 01:32:00,55.9,49.1,30.31,SSE,158,3.0,4.0,78,0.00,,,0.00,meteohub,2013-08-17 05:32:00,
2013-08-17 01:37:00,55.9,49.1,30.31,SSE,158,3.0,5.0,78,0.00,,,0.00,meteohub,2013-08-17 05:37:00,
2013-08-17 01:42:00,55.9,49.1,30.31,SSE,158,6.0,6.0,78,0.00,,,0.00,meteohub,2013-08-17 05:42:00,
2013-08-17 01:47:00,55.8,49.1,30.31,SSE,158,6.0,6.0,78,0.00,,,0.00,meteohub,2013-08-17 05:47:00,
2013-08-17 01:52:00,55.8,49.1,30.31,SSE,158,5.0,6.0,78,0.00,,,0.00,meteohub,2013-08-17 05:52:00,
2013-08-17 01:57:00,55.8,49.3,30.31,SSE,158,4.0,8.0,79,0.00,,,0.00,meteohub,2013-08-17 05:57:00,
2013-08-17 02:02:00,55.6,48.9,30.31,SSE,158,2.0,8.0,78,0.00,,,0.00,meteohub,2013-08-17 06:02:00,
2013-08-17 02:07:00,55.6,48.9,30.31,ESE,112,2.0,6.0,78,0.00,,,0.00,meteohub,2013-08-17 06:07:00,
2013-08-17 02:12:00,55.6,48.9,30.31,SSE,158,3.0,6.0,78,0.00,,,0.00,meteohub,2013-08-17 06:12:00,
2013-08-17 02:17:00,55.6,48.9,30.31,SSE,158,3.0,5.0,78,0.00,,,0.00,meteohub,2013-08-17 06:17:00,
2013-08-17 02:22:00,55.4,48.7,30.32,SSE,158,2.0,4.0,78,0.00,,,0.00,meteohub,2013-08-17 06:22:00,
2013-08-17 02:27:00,55.2,48.6,30.28,ESE,112,3.0,4.0,78,0.00,,,0.00,meteohub,2013-08-17 06:27:00,
2013-08-17 02:32:00,55.2,48.2,30.28,SSE,158,0.0,3.0,77,0.00,,,0.00,meteohub,2013-08-17 06:32:00,
2013-08-17 02:37:00,55.0,48.0,30.28,SSE,158,2.0,3.0,77,0.00,,,0.00,meteohub,2013-08-17 06:37:00,
2013-08-17 02:42:00,54.9,47.5,30.29,SSE,158,3.0,3.0,76,0.00,,,0.00,meteohub,2013-08-17 06:42:00,
2013-08-17 02:47:00,54.7,47.3,30.29,SSE,158,3.0,4.0,76,0.00,,,0.00,meteohub,2013-08-17 06:47:00,
2013-08-17 02:52:00,54.5,47.1,30.29,SSE,158,3.0,4.0,76,0.00,,,0.00,meteohub,2013-08-17 06:52:00,
2013-08-17 02:57:00,54.3,46.9,30.29,SSE,158,3.0,4.0,76,0.00,,,0.00,meteohub,2013-08-17 06:57:00,
2013-08-17 03:02:00,54.1,46.8,30.29,SSE,158,3.0,4.0,76,0.00,,,0.00,meteohub,2013-08-17 07:02:00,
2013-08-17 03:07:00,54.1,46.8,30.29,SSE,158,2.0,4.0,76,0.00,,,0.00,meteohub,2013-08-17 07:07:00,
2013-08-17 03:12:00,54.1,46.8,30.32,SSE,158,0.0,3.0,76,0.00,,,0.00,meteohub,2013-08-17 07:12:00,
2013-08-17 03:17:00,54.0,46.6,30.32,SE,135,0.0,3.0,76,0.00,,,0.00,meteohub,2013-08-17 07:17:00,
2013-08-17 03:22:00,54.0,46.6,30.32,SSE,158,2.0,3.0,76,0.00,,,0.00,meteohub,2013-08-17 07:22:00,
2013-08-17 03:27:00,53.8,46.0,30.29,SSE,158,0.0,2.0,75,0.00,,,0.00,meteohub,2013-08-17 07:27:00,
2013-08-17 03:32:00,53.8,46.0,30.29,ESE,112,2.0,2.0,75,0.00,,,0.00,meteohub,2013-08-17 07:32:00,
2013-08-17 03:37:00,53.8,46.0,30.29,SSE,158,2.0,2.0,75,0.00,,,0.00,meteohub,2013-08-17 07:37:00,
2013-08-17 03:42:00,53.6,45.9,30.33,ESE,112,1.0,3.0,75,0.00,,,0.00,meteohub,2013-08-17 07:42:00,
2013-08-17 03:47:00,53.6,45.9,30.33,South,180,0.0,3.0,75,0.00,,,0.00,meteohub,2013-08-17 07:47:00,
2013-08-17 03:52:00,53.6,45.9,30.33,SSE,158,0.0,3.0,75,0.00,,,0.00,meteohub,2013-08-17 07:52:00,
2013-08-17 03:57:00,53.4,45.7,30.33,South,180,2.0,2.0,75,0.00,,,0.00,meteohub,2013-08-17 07:57:00,
2013-08-17 04:02:00,53.4,45.7,30.33,SSE,158,1.0,3.0,75,0.00,,,0.00,meteohub,2013-08-17 08:02:00,
2013-08-17 04:07:00,53.4,45.7,30.33,SSE,158,3.0,3.0,75,0.00,,,0.00,meteohub,2013-08-17 08:07:00,
2013-08-17 04:12:00,53.4,45.7,30.33,SSE,158,2.0,4.0,75,0.00,,,0.00,meteohub,2013-08-17 08:12:00,
2013-08-17 04:17:00,53.6,45.9,30.33,WSW,248,1.0,4.0,75,0.00,,,0.00,meteohub,2013-08-17 08:17:00,
2013-08-17 04:22:00,53.6,45.9,30.33,SSE,158,0.0,4.0,75,0.00,,,0.00,meteohub,2013-08-17 08:22:00,
2013-08-17 04:27:00,53.6,45.5,30.30,SSE,158,1.0,2.0,74,0.00,,,0.00,meteohub,2013-08-17 08:27:00,
2013-08-17 04:32:00,53.6,45.5,30.30,WSW,248,0.0,2.0,74,0.00,,,0.00,meteohub,2013-08-17 08:32:00,
2013-08-17 04:37:00,53.8,45.7,30.29,South,180,0.0,2.0,74,0.00,,,0.00,meteohub,2013-08-17 08:37:00,
2013-08-17 04:42:00,53.6,45.1,30.30,SSE,158,0.0,4.0,73,0.00,,,0.00,meteohub,2013-08-17 08:42:00,
2013-08-17 04:47:00,53.8,45.3,30.29,West,270,2.0,4.0,73,0.00,,,0.00,meteohub,2013-08-17 08:47:00,
2013-08-17 04:52:00,53.6,45.1,30.30,West,270,1.0,4.0,73,0.00,,,0.00,meteohub,2013-08-17 08:52:00,
2013-08-17 04:57:00,53.6,45.1,30.30,West,270,1.0,2.0,73,0.00,,,0.00,meteohub,2013-08-17 08:57:00,
2013-08-17 05:02:00,53.4,45.0,30.30,WSW,248,0.0,2.0,73,0.00,,,0.00,meteohub,2013-08-17 09:02:00,
2013-08-17 05:07:00,53.4,45.0,30.30,West,270,2.0,2.0,73,0.00,,,0.00,meteohub,2013-08-17 09:07:00,
2013-08-17 05:12:00,53.4,45.0,30.30,West,270,0.0,2.0,73,0.00,,,0.00,meteohub,2013-08-17 09:12:00,
2013-08-17 05:17:00,53.2,44.4,30.30,SSW,202,0.0,2.0,72,0.00,,,0.00,meteohub,2013-08-17 09:17:00,
2013-08-17 05:22:00,53.4,44.6,30.30,West,270,2.0,2.0,72,0.00,,,0.00,meteohub,2013-08-17 09:22:00,
2013-08-17 05:27:00,53.2,44.4,30.30,WNW,292,2.0,2.0,72,0.00,,,0.00,meteohub,2013-08-17 09:27:00,
2013-08-17 05:32:00,53.1,43.9,30.30,SSE,158,2.0,2.0,71,0.00,,,0.00,meteohub,2013-08-17 09:32:00,
2013-08-17 05:37:00,52.9,43.7,30.30,WNW,292,2.0,3.0,71,0.00,,,0.00,meteohub,2013-08-17 09:37:00,
2013-08-17 05:42:00,52.9,43.7,30.30,SSW,202,1.0,3.0,71,0.00,,,0.00,meteohub,2013-08-17 09:42:00,
2013-08-17 05:47:00,52.7,43.2,30.30,SE,135,0.0,3.0,70,0.00,,,0.00,meteohub,2013-08-17 09:47:00,
2013-08-17 05:52:00,52.7,43.2,30.30,SW,225,0.0,2.0,70,0.00,,,0.00,meteohub,2013-08-17 09:52:00,
2013-08-17 05:57:00,52.5,43.0,30.30,WSW,248,0.0,2.0,70,0.00,,,0.00,meteohub,2013-08-17 09:57:00,
2013-08-17 06:02:00,52.3,42.8,30.30,WSW,248,0.0,2.0,70,0.00,,,0.00,meteohub,2013-08-17 10:02:00,
2013-08-17 06:07:00,52.2,42.6,30.31,West,270,1.0,2.0,70,0.00,,,0.00,meteohub,2013-08-17 10:07:00,
2013-08-17 06:12:00,52.0,42.1,30.31,WSW,248,2.0,2.0,69,0.00,,,0.00,meteohub,2013-08-17 10:12:00,
2013-08-17 06:17:00,52.0,42.1,30.31,West,270,1.0,3.0,69,0.00,,,0.00,meteohub,2013-08-17 10:17:00,
2013-08-17 06:22:00,51.8,42.3,30.31,WSW,248,0.0,3.0,70,0.00,,,0.00,meteohub,2013-08-17 10:22:00,
2013-08-17 06:27:00,51.8,42.3,30.31,WSW,248,0.0,2.0,70,0.00,,,0.00,meteohub,2013-08-17 10:27:00,
2013-08-17 06:32:00,51.8,42.3,30.31,West,270,0.0,2.0,70,0.00,,,0.00,meteohub,2013-08-17 10:32:00,
2013-08-17 06:37:00,51.8,42.3,30.31,WNW,292,0.0,2.0,70,0.00,,,0.00,meteohub,2013-08-17 10:37:00,
2013-08-17 06:42:00,51.8,42.3,30.31,West,270,1.0,2.0,70,0.00,,,0.00,meteohub,2013-08-17 10:42:00,
2013-08-17 06:47:00,51.6,42.3,30.31,West,270,2.0,2.0,70,0.00,,,0.00,meteohub,2013-08-17 10:47:00,
2013-08-17 06:52:00,51.6,42.3,30.31,WNW,292,0.0,2.0,70,0.00,,,0.00,meteohub,2013-08-17 10:52:00,
2013-08-17 06:57:00,51.8,42.3,30.31,WNW,292,0.0,2.0,70,0.00,,,0.00,meteohub,2013-08-17 10:57:00,
2013-08-17 07:02:00,51.8,42.3,30.31,SW,225,0.0,2.0,70,0.00,,,0.00,meteohub,2013-08-17 11:02:00,
2013-08-17 07:07:00,52.2,42.3,30.31,SSW,202,2.0,2.0,69,0.00,,,0.00,meteohub,2013-08-17 11:07:00,
2013-08-17 07:12:00,52.3,42.4,30.34,SSW,202,0.0,2.0,69,0.00,,,0.00,meteohub,2013-08-17 11:12:00,
2013-08-17 07:17:00,52.5,42.6,30.34,SSW,202,0.0,2.0,69,0.00,,,0.00,meteohub,2013-08-17 11:17:00,
2013-08-17 07:22:00,52.7,42.4,30.34,SSE,158,2.0,2.0,68,0.00,,,0.00,meteohub,2013-08-17 11:22:00,
2013-08-17 07:27:00,53.1,43.2,30.33,SSE,158,3.0,3.0,69,0.00,,,0.00,meteohub,2013-08-17 11:27:00,
2013-08-17 07:32:00,53.2,43.0,30.33,SSE,158,2.0,3.0,68,0.00,,,0.00,meteohub,2013-08-17 11:32:00,
2013-08-17 07:37:00,53.4,43.2,30.33,SSW,202,1.0,3.0,68,0.00,,,0.00,meteohub,2013-08-17 11:37:00,
2013-08-17 07:42:00,53.4,42.8,30.33,SSE,158,1.0,3.0,67,0.00,,,0.00,meteohub,2013-08-17 11:42:00,
2013-08-17 07:47:00,53.4,42.8,30.33,SSE,158,0.0,3.0,67,0.00,,,0.00,meteohub,2013-08-17 11:47:00,
2013-08-17 07:52:00,53.4,43.2,30.33,North,-999,-999.0,3.0,68,0.00,,,0.00,meteohub,2013-08-17 11:52:00,
2013-08-17 07:57:00,53.4,43.2,30.33,North,-999,-999.0,1.0,68,0.00,,,0.00,meteohub,2013-08-17 11:57:00,
2013-08-17 08:02:00,53.6,43.3,30.33,West,270,0.0,0.0,68,0.00,,,0.00,meteohub,2013-08-17 12:02:00,
2013-08-17 08:06:00,53.6,43.7,30.33,North,0,1.0,2.0,69,0.00,,,0.00,meteohub,2013-08-17 12:06:00,
2013-08-17 08:11:00,53.8,43.9,30.33,WNW,292,2.0,2.0,69,0.00,,,0.00,meteohub,2013-08-17 12:11:00,
2013-08-17 08:16:00,53.8,43.9,30.33,NW,315,1.0,3.0,69,0.00,,,0.00,meteohub,2013-08-17 12:16:00,
2013-08-17 08:21:00,54.0,43.7,30.32,WNW,292,2.0,3.0,68,0.00,,,0.00,meteohub,2013-08-17 12:21:00,
2013-08-17 08:26:00,54.1,43.9,30.32,East,90,1.0,3.0,68,0.00,,,0.00,meteohub,2013-08-17 12:26:00,
2013-08-17 08:31:00,54.5,44.2,30.32,NE,45,0.0,3.0,68,0.00,,,0.00,meteohub,2013-08-17 12:31:00,
2013-08-17 08:36:00,54.7,43.5,30.32,North,-999,-999.0,3.0,66,0.00,,,0.00,meteohub,2013-08-17 12:36:00,
2013-08-17 08:41:00,55.0,43.5,30.32,SW,225,2.0,2.0,65,0.00,,,0.00,meteohub,2013-08-17 12:41:00,
2013-08-17 08:46:00,55.2,43.3,30.32,SSE,158,3.0,3.0,64,0.00,,,0.00,meteohub,2013-08-17 12:46:00,
2013-08-17 08:51:00,55.6,43.7,30.31,WSW,248,0.0,3.0,64,0.00,,,0.00,meteohub,2013-08-17 12:51:00,
2013-08-17 08:56:00,55.9,42.6,30.31,SSW,202,0.0,3.0,61,-99.99,,,0.00,meteohub,2013-08-17 12:56:00,
2013-08-17 09:01:00,56.3,43.0,30.31,SSE,158,2.0,3.0,61,-99.99,,,0.00,meteohub,2013-08-17 13:01:00,
2013-08-17 09:06:00,56.5,42.8,30.31,SSW,202,2.0,3.0,60,-99.99,,,0.00,meteohub,2013-08-17 13:06:00,
2013-08-17 09:11:00,56.7,42.4,30.30,North,-999,-999.0,3.0,59,-99.99,,,0.00,meteohub,2013-08-17 13:11:00,
2013-08-17 09:16:00,57.0,42.4,30.30,SSE,158,1.0,3.0,58,-99.99,,,0.00,meteohub,2013-08-17 13:16:00,
2013-08-17 09:21:00,57.6,42.1,30.30,West,270,1.0,3.0,56,-99.99,,,0.00,meteohub,2013-08-17 13:21:00,
2013-08-17 09:26:00,57.7,41.2,30.33,ESE,112,3.0,6.0,54,-99.99,,,0.00,meteohub,2013-08-17 13:26:00,
2013-08-17 09:31:00,57.9,41.0,30.33,ESE,112,2.0,6.0,53,-99.99,,,0.00,meteohub,2013-08-17 13:31:00,
2013-08-17 09:36:00,58.1,41.0,30.33,SSE,158,5.0,6.0,53,-99.99,,,0.00,meteohub,2013-08-17 13:36:00,
2013-08-17 09:41:00,58.1,40.6,30.29,SSE,158,5.0,5.0,52,-99.99,,,0.00,meteohub,2013-08-17 13:41:00,
2013-08-17 09:46:00,58.3,40.8,30.29,ESE,112,4.0,5.0,52,0.00,,,0.00,meteohub,2013-08-17 13:46:00,
2013-08-17 09:51:00,58.5,41.0,30.29,SSE,158,6.0,7.0,52,0.00,,,0.00,meteohub,2013-08-17 13:51:00,
2013-08-17 09:56:00,58.3,40.8,30.29,SE,135,4.0,7.0,52,0.00,,,0.00,meteohub,2013-08-17 13:56:00,
2013-08-17 10:01:00,58.1,41.0,30.29,SSE,158,4.0,8.0,53,0.00,,,0.00,meteohub,2013-08-17 14:01:00,
2013-08-17 10:06:00,58.3,41.2,30.29,SSE,158,6.0,8.0,53,0.00,,,0.00,meteohub,2013-08-17 14:06:00,
2013-08-17 10:11:00,58.5,41.9,30.29,SSE,158,5.0,8.0,54,0.00,,,0.00,meteohub,2013-08-17 14:11:00,
2013-08-17 10:16:00,58.6,41.5,30.29,SSE,158,6.0,8.0,53,0.00,,,0.00,meteohub,2013-08-17 14:16:00,
2013-08-17 10:21:00,59.0,41.9,30.29,SE,135,6.0,7.0,53,0.00,,,0.00,meteohub,2013-08-17 14:21:00,
2013-08-17 10:26:00,59.2,42.1,30.28,SSE,158,6.0,8.0,53,0.00,,,0.00,meteohub,2013-08-17 14:26:00,
2013-08-17 10:31:00,59.4,42.3,30.28,SSE,158,6.0,8.0,53,0.00,,,0.00,meteohub,2013-08-17 14:31:00,
2013-08-17 10:36:00,59.7,42.6,30.28,SSE,158,6.0,8.0,53,0.00,,,0.00,meteohub,2013-08-17 14:36:00,
2013-08-17 10:41:00,59.7,43.0,30.31,SSE,158,4.0,8.0,54,0.00,,,0.00,meteohub,2013-08-17 14:41:00,
2013-08-17 10:47:00,59.7,43.0,30.31,SSE,158,4.0,8.0,54,0.00,,,0.00,meteohub,2013-08-17 14:47:00,
2013-08-17 10:52:00,60.1,43.9,30.31,ESE,112,7.0,8.0,55,0.00,,,0.00,meteohub,2013-08-17 14:52:00,
2013-08-17 10:57:00,60.4,44.2,30.31,SSE,158,5.0,7.0,55,0.00,,,0.00,meteohub,2013-08-17 14:57:00,
2013-08-17 11:02:00,60.4,43.7,30.31,SE,135,3.0,7.0,54,0.00,,,0.00,meteohub,2013-08-17 15:02:00,
2013-08-17 11:07:00,60.6,43.9,30.31,SE,135,5.0,8.0,54,0.00,,,0.00,meteohub,2013-08-17 15:07:00,
2013-08-17 11:12:00,61.0,44.2,30.30,South,180,4.0,8.0,54,0.00,,,0.00,meteohub,2013-08-17 15:12:00,
2013-08-17 11:17:00,61.9,45.1,30.30,SSE,158,3.0,7.0,54,0.00,,,0.00,meteohub,2013-08-17 15:17:00,
2013-08-17 11:22:00,62.4,45.5,30.29,SSE,158,4.0,6.0,54,0.00,,,0.00,meteohub,2013-08-17 15:22:00,
2013-08-17 11:27:00,62.2,43.9,30.30,SSW,202,3.0,8.0,51,0.00,,,0.00,meteohub,2013-08-17 15:27:00,
2013-08-17 11:32:00,62.1,43.7,30.30,SE,135,6.0,8.0,51,0.00,,,0.00,meteohub,2013-08-17 15:32:00,
2013-08-17 11:37:00,61.9,43.5,30.30,SSE,158,6.0,8.0,51,0.00,,,0.00,meteohub,2013-08-17 15:37:00,
2013-08-17 11:42:00,61.7,43.3,30.30,South,180,7.0,8.0,51,0.00,,,0.00,meteohub,2013-08-17 15:42:00,
2013-08-17 11:47:00,61.7,43.3,30.30,SSE,158,6.0,8.0,51,0.00,,,0.00,meteohub,2013-08-17 15:47:00,
2013-08-17 11:52:00,61.5,43.2,30.30,SSE,158,8.0,9.0,51,0.00,,,0.00,meteohub,2013-08-17 15:52:00,
2013-08-17 11:57:00,61.7,43.9,30.30,SSE,158,6.0,9.0,52,0.00,,,0.00,meteohub,2013-08-17 15:57:00,
2013-08-17 12:02:00,61.3,43.2,30.30,SSE,158,6.0,9.0,51,0.00,,,0.00,meteohub,2013-08-17 16:02:00,
2013-08-17 12:07:00,61.0,43.3,30.30,SSE,158,6.0,9.0,52,0.00,,,0.00,meteohub,2013-08-17 16:07:00,
2013-08-17 12:12:00,61.0,43.3,30.30,SSE,158,4.0,9.0,52,0.00,,,0.00,meteohub,2013-08-17 16:12:00,
2013-08-17 12:17:00,61.2,43.9,30.30,ESE,112,4.0,8.0,53,0.00,,,0.00,meteohub,2013-08-17 16:17:00,
2013-08-17 12:22:00,61.2,43.9,30.30,SSE,158,6.0,8.0,53,0.00,,,0.00,meteohub,2013-08-17 16:22:00,
2013-08-17 12:27:00,61.2,44.4,30.30,ESE,112,4.0,8.0,54,0.00,,,0.00,meteohub,2013-08-17 16:27:00,
2013-08-17 12:32:00,61.2,44.4,30.30,ESE,112,6.0,6.0,54,0.00,,,0.00,meteohub,2013-08-17 16:32:00,
2013-08-17 12:37:00,61.0,44.2,30.30,SSE,158,4.0,6.0,54,0.00,,,0.00,meteohub,2013-08-17 16:37:00,
2013-08-17 12:42:00,61.0,44.8,30.30,SSE,158,3.0,6.0,55,0.00,,,0.00,meteohub,2013-08-17 16:42:00,
2013-08-17 12:47:00,61.3,45.1,30.30,SE,135,8.0,8.0,55,0.00,,,0.00,meteohub,2013-08-17 16:47:00,
2013-08-17 12:52:00,61.0,44.8,30.30,SE,135,6.0,8.0,55,0.00,,,0.00,meteohub,2013-08-17 16:52:00,
2013-08-17 12:57:00,60.6,44.8,30.31,SSE,158,9.0,9.0,56,0.00,,,0.00,meteohub,2013-08-17 16:57:00,
2013-08-17 13:02:00,60.6,45.3,30.31,SSE,158,6.0,9.0,57,0.00,,,0.00,meteohub,2013-08-17 17:02:00,
2013-08-17 13:07:00,60.4,45.7,30.31,SE,135,8.0,9.0,58,-99.99,,,0.00,meteohub,2013-08-17 17:07:00,
2013-08-17 13:12:00,60.3,45.5,30.28,SSE,158,7.0,10.0,58,-99.99,,,0.00,meteohub,2013-08-17 17:12:00,
2013-08-17 13:17:00,60.1,45.3,30.28,SSE,158,5.0,10.0,58,-99.99,,,0.00,meteohub,2013-08-17 17:17:00,
2013-08-17 13:22:00,60.1,46.2,30.28,SE,135,6.0,10.0,60,-99.99,,,0.00,meteohub,2013-08-17 17:22:00,
2013-08-17 13:27:00,59.9,46.4,30.28,SSE,158,5.0,10.0,61,-99.99,,,0.00,meteohub,2013-08-17 17:27:00,
2013-08-17 13:32:00,59.4,46.4,30.28,SSE,158,6.0,9.0,62,-99.99,,,0.00,meteohub,2013-08-17 17:32:00,
2013-08-17 13:37:00,59.4,46.8,30.28,SE,135,4.0,9.0,63,-99.99,,,0.00,meteohub,2013-08-17 17:37:00,
2013-08-17 13:42:00,59.2,46.9,30.28,SSE,158,4.0,7.0,64,-99.99,,,0.00,meteohub,2013-08-17 17:42:00,
2013-08-17 13:47:00,59.2,46.9,30.28,SSE,158,4.0,6.0,64,-99.99,,,0.00,meteohub,2013-08-17 17:47:00,
2013-08-17 13:52:00,59.2,47.5,30.28,SE,135,6.0,6.0,65,-99.99,,,0.00,meteohub,2013-08-17 17:52:00,
2013-08-17 13:57:00,59.2,48.2,30.28,SSE,158,4.0,6.0,67,-99.99,,,0.00,meteohub,2013-08-17 17:57:00,
2013-08-17 14:02:00,59.4,48.4,30.28,ESE,112,4.0,6.0,67,-99.99,,,0.00,meteohub,2013-08-17 18:02:00,
2013-08-17 14:07:00,59.2,48.2,30.28,ESE,112,5.0,6.0,67,-99.99,,,0.00,meteohub,2013-08-17 18:07:00,
2013-08-17 14:12:00,59.2,48.6,30.28,SSE,158,5.0,6.0,68,-99.99,,,0.00,meteohub,2013-08-17 18:12:00,
2013-08-17 14:17:00,59.2,49.1,30.28,SSE,158,4.0,6.0,69,-99.99,,,0.00,meteohub,2013-08-17 18:17:00,
2013-08-17 14:22:00,59.2,49.1,30.28,SSE,158,5.0,6.0,69,-99.99,,,0.00,meteohub,2013-08-17 18:22:00,
2013-08-17 14:27:00,59.2,49.1,30.28,ESE,112,5.0,6.0,69,-99.99,,,0.00,meteohub,2013-08-17 18:27:00,
2013-08-17 14:32:00,59.2,49.1,30.28,SSE,158,4.0,6.0,69,-99.99,,,0.00,meteohub,2013-08-17 18:32:00,
2013-08-17 14:37:00,59.0,48.9,30.29,ESE,112,6.0,6.0,69,0.00,,,0.00,meteohub,2013-08-17 18:37:00,
2013-08-17 14:42:00,59.2,49.1,30.28,SE,135,4.0,6.0,69,0.00,,,0.00,meteohub,2013-08-17 18:42:00,
2013-08-17 14:47:00,59.2,49.1,30.28,SSE,158,5.0,6.0,69,0.00,,,0.00,meteohub,2013-08-17 18:47:00,
2013-08-17 14:52:00,59.2,49.5,30.28,SE,135,4.0,6.0,70,0.00,,,0.00,meteohub,2013-08-17 18:52:00,
2013-08-17 14:57:00,59.2,49.5,30.28,ESE,112,5.0,5.0,70,0.00,,,0.00,meteohub,2013-08-17 18:57:00,
2013-08-17 15:01:00,59.0,49.3,30.29,SE,135,4.0,6.0,70,0.00,,,0.00,meteohub,2013-08-17 19:01:00,
2013-08-17 15:07:00,59.0,49.6,30.29,SE,135,4.0,6.0,71,0.00,,,0.00,meteohub,2013-08-17 19:07:00,
2013-08-17 15:12:00,59.0,49.6,30.29,SE,135,4.0,6.0,71,0.00,,,0.00,meteohub,2013-08-17 19:12:00,
2013-08-17 15:17:00,59.0,49.6,30.29,SSE,158,3.0,6.0,71,0.00,,,0.00,meteohub,2013-08-17 19:17:00,
2013-08-17 15:22:00,59.0,49.6,30.29,SSE,158,3.0,5.0,71,0.00,,,0.00,meteohub,2013-08-17 19:22:00,
2013-08-17 15:27:00,59.2,50.2,30.25,SSE,158,5.0,5.0,72,0.00,,,0.00,meteohub,2013-08-17 19:27:00,
2013-08-17 15:32:00,59.0,50.0,30.25,SE,135,4.0,5.0,72,0.00,,,0.00,meteohub,2013-08-17 19:32:00,
2013-08-17 15:37:00,59.0,50.0,30.25,SSE,158,4.0,5.0,72,-99.99,,,0.00,meteohub,2013-08-17 19:37:00,
2013-08-17 15:42:00,59.0,50.4,30.29,ESE,112,3.0,5.0,73,-99.99,,,0.00,meteohub,2013-08-17 19:42:00,
2013-08-17 15:47:00,59.2,50.5,30.28,South,180,0.0,5.0,73,-99.99,,,0.00,meteohub,2013-08-17 19:47:00,
2013-08-17 15:52:00,59.4,50.7,30.28,ENE,68,0.0,4.0,73,-99.99,,,0.00,meteohub,2013-08-17 19:52:00,
2013-08-17 15:57:00,59.5,51.3,30.25,SSW,202,2.0,3.0,74,-99.99,,,0.00,meteohub,2013-08-17 19:57:00,
2013-08-17 16:02:00,59.7,51.4,30.25,SSW,202,0.0,2.0,74,-99.99,,,0.00,meteohub,2013-08-17 20:02:00,
2013-08-17 16:07:00,59.7,51.4,30.25,SSE,158,2.0,2.0,74,-99.99,,,0.00,meteohub,2013-08-17 20:07:00,
2013-08-17 16:12:00,59.9,51.6,30.28,SSE,158,0.0,2.0,74,-99.99,,,0.00,meteohub,2013-08-17 20:12:00,
2013-08-17 16:17:00,59.9,51.6,30.28,SSW,202,0.0,2.0,74,-99.99,,,0.00,meteohub,2013-08-17 20:17:00,
2013-08-17 16:22:00,59.9,51.6,30.28,SSE,158,1.0,3.0,74,-99.99,,,0.00,meteohub,2013-08-17 20:22:00,
2013-08-17 16:27:00,59.9,51.6,30.28,SSW,202,0.0,3.0,74,-99.99,,,0.00,meteohub,2013-08-17 20:27:00,
2013-08-17 16:32:00,59.9,52.0,30.28,SW,225,0.0,3.0,75,-99.99,,,0.00,meteohub,2013-08-17 20:32:00,
2013-08-17 16:37:00,59.9,52.0,30.28,SSE,158,2.0,2.0,75,-99.99,,,0.00,meteohub,2013-08-17 20:37:00,
2013-08-17 16:42:00,60.1,52.2,30.28,SSE,158,4.0,4.0,75,-99.99,,,0.00,meteohub,2013-08-17 20:42:00,
2013-08-17 16:47:00,60.1,52.5,30.28,North,-999,-999.0,4.0,76,-99.99,,,0.00,meteohub,2013-08-17 20:47:00,
2013-08-17 16:52:00,60.1,52.5,30.28,SSW,202,0.0,4.0,76,-99.99,,,0.00,meteohub,2013-08-17 20:52:00,
2013-08-17 16:56:00,59.9,52.3,30.28,SSE,158,3.0,0.0,76,-99.99,,,0.00,meteohub,2013-08-17 20:56:00,
2013-08-17 17:01:00,59.9,52.3,30.28,SSE,158,3.0,3.0,76,-99.99,,,0.00,meteohub,2013-08-17 21:01:00,
2013-08-17 17:06:00,59.9,52.3,30.28,SSE,158,0.0,3.0,76,-99.99,,,0.00,meteohub,2013-08-17 21:06:00,
2013-08-17 17:11:00,59.9,52.3,30.28,SSE,158,3.0,4.0,76,-99.99,,,0.00,meteohub,2013-08-17 21:11:00,
2013-08-17 17:17:00,59.9,52.3,30.28,SSE,158,2.0,4.0,76,-99.99,,,0.00,meteohub,2013-08-17 21:17:00,
2013-08-17 17:22:00,59.9,52.7,30.28,SSE,158,1.0,4.0,77,-99.99,,,0.00,meteohub,2013-08-17 21:22:00,
2013-08-17 17:27:00,59.9,52.7,30.28,SSW,202,2.0,3.0,77,-99.99,,,0.00,meteohub,2013-08-17 21:27:00,
2013-08-17 17:32:00,59.7,52.5,30.28,SSE,158,4.0,4.0,77,-99.99,,,0.00,meteohub,2013-08-17 21:32:00,
2013-08-17 17:37:00,59.7,52.5,30.28,SSE,158,4.0,5.0,77,-99.99,,,0.00,meteohub,2013-08-17 21:37:00,
2013-08-17 17:42:00,59.5,52.3,30.28,SSE,158,4.0,6.0,77,-99.99,,,0.00,meteohub,2013-08-17 21:42:00,
2013-08-17 17:47:00,59.5,52.7,30.28,SSE,158,4.0,6.0,78,-99.99,,,0.00,meteohub,2013-08-17 21:47:00,
2013-08-17 17:52:00,59.5,52.7,30.28,SSE,158,4.0,6.0,78,-99.99,,,0.00,meteohub,2013-08-17 21:52:00,
2013-08-17 17:57:00,59.4,52.5,30.28,SSE,158,4.0,5.0,78,-99.99,,,0.00,meteohub,2013-08-17 21:57:00,
2013-08-17 18:02:00,59.4,52.5,30.28,SSE,158,4.0,5.0,78,-99.99,,,0.00,meteohub,2013-08-17 22:02:00,
2013-08-17 18:07:00,59.2,52.3,30.28,SSE,158,4.0,5.0,78,-99.99,,,0.00,meteohub,2013-08-17 22:07:00,
2013-08-17 18:12:00,59.2,52.3,30.28,SE,135,3.0,5.0,78,-99.99,,,0.00,meteohub,2013-08-17 22:12:00,
2013-08-17 18:17:00,59.0,52.2,30.29,SSE,158,4.0,5.0,78,-99.99,,,0.00,meteohub,2013-08-17 22:17:00,
2013-08-17 18:22:00,59.0,52.2,30.29,SSE,158,3.0,4.0,78,-99.99,,,0.00,meteohub,2013-08-17 22:22:00,
2013-08-17 18:27:00,58.8,52.3,30.29,South,180,1.0,4.0,79,-99.99,,,0.00,meteohub,2013-08-17 22:27:00,
2013-08-17 18:32:00,59.0,52.5,30.29,SSE,158,4.0,4.0,79,-99.99,,,0.00,meteohub,2013-08-17 22:32:00,
2013-08-17 18:37:00,58.8,52.7,30.29,SE,135,3.0,4.0,80,-99.99,,,0.00,meteohub,2013-08-17 22:37:00,
2013-08-17 18:42:00,58.8,52.7,30.29,SSE,158,2.0,4.0,80,-99.99,,,0.00,meteohub,2013-08-17 22:42:00,
2013-08-17 18:47:00,58.8,52.7,30.29,SE,135,2.0,4.0,80,-99.99,,,0.00,meteohub,2013-08-17 22:47:00,
2013-08-17 18:52:00,59.0,52.9,30.29,SSE,158,4.0,7.0,80,-99.99,,,0.00,meteohub,2013-08-17 22:52:00,
2013-08-17 18:57:00,59.0,52.9,30.25,South,180,0.0,7.0,80,-99.99,,,0.00,meteohub,2013-08-17 22:57:00,
2013-08-17 19:02:00,59.2,53.4,30.25,SSE,158,3.0,7.0,81,-99.99,,,0.00,meteohub,2013-08-17 23:02:00,
2013-08-17 19:07:00,59.2,53.4,30.25,SSE,158,0.0,4.0,81,-99.99,,,0.00,meteohub,2013-08-17 23:07:00,
2013-08-17 19:12:00,59.2,53.4,30.25,SSE,158,3.0,4.0,81,-99.99,,,0.00,meteohub,2013-08-17 23:12:00,
2013-08-17 19:17:00,59.2,53.4,30.25,SSE,158,4.0,5.0,81,-99.99,,,0.00,meteohub,2013-08-17 23:17:00,
2013-08-17 19:22:00,59.2,53.4,30.25,SSE,158,4.0,6.0,81,-99.99,,,0.00,meteohub,2013-08-17 23:22:00,
2013-08-17 19:27:00,59.2,53.4,30.25,SSE,158,2.0,6.0,81,-99.99,,,0.00,meteohub,2013-08-17 23:27:00,
2013-08-17 19:32:00,59.4,53.8,30.25,SSE,158,4.0,6.0,82,-99.99,,,0.00,meteohub,2013-08-17 23:32:00,
2013-08-17 19:37:00,59.4,53.8,30.25,SE,135,2.0,6.0,82,-99.99,,,0.00,meteohub,2013-08-17 23:37:00,
2013-08-17 19:42:00,59.4,53.8,30.25,SE,135,4.0,5.0,82,-99.99,,,0.00,meteohub,2013-08-17 23:42:00,
2013-08-17 19:47:00,59.2,53.8,30.25,SSE,158,4.0,7.0,82,-99.99,,,0.00,meteohub,2013-08-17 23:47:00,
2013-08-17 19:52:00,59.0,53.6,30.25,SSW,202,3.0,7.0,82,-99.99,,,0.00,meteohub,2013-08-17 23:52:00,
2013-08-17 19:57:00,59.0,53.6,30.29,SSE,158,3.0,7.0,82,-99.99,,,0.00,meteohub,2013-08-17 23:57:00,
2013-08-17 20:02:00,58.8,53.4,30.29,SE,135,4.0,6.0,82,-99.99,,,0.00,meteohub,2013-08-18 00:02:00,
2013-08-17 20:07:00,58.8,53.4,30.29,SSE,158,4.0,6.0,82,-99.99,,,0.00,meteohub,2013-08-18 00:07:00,
2013-08-17 20:12:00,58.6,53.2,30.29,SSE,158,4.0,6.0,82,0.00,,,0.08,meteohub,2013-08-18 00:12:00,
2013-08-17 20:17:00,58.6,53.4,30.29,SE,135,4.0,6.0,83,0.00,,,0.08,meteohub,2013-08-18 00:17:00,
2013-08-17 20:22:00,58.5,53.2,30.29,SSE,158,3.0,5.0,83,0.00,,,0.08,meteohub,2013-08-18 00:22:00,
2013-08-17 20:27:00,58.5,53.2,30.29,SSE,158,3.0,5.0,83,0.00,,,0.08,meteohub,2013-08-18 00:27:00,
2013-08-17 20:32:00,58.5,53.2,30.29,South,180,6.0,6.0,83,0.00,,,0.08,meteohub,2013-08-18 00:32:00,
2013-08-17 20:37:00,58.5,53.2,30.29,SSE,158,3.0,6.0,83,0.00,,,0.08,meteohub,2013-08-18 00:37:00,
2013-08-17 20:42:00,58.5,53.2,30.29,SSE,158,2.0,6.0,83,0.00,,,0.08,meteohub,2013-08-18 00:42:00,
2013-08-17 20:47:00,58.5,53.6,30.29,South,180,2.0,6.0,84,0.00,,,0.08,meteohub,2013-08-18 00:47:00,
2013-08-17 20:52:00,58.5,53.6,30.29,SSW,202,2.0,6.0,84,0.00,,,0.08,meteohub,2013-08-18 00:52:00,
2013-08-17 20:57:00,58.5,53.6,30.29,South,180,2.0,4.0,84,0.00,,,0.08,meteohub,2013-08-18 00:57:00,
2013-08-17 21:02:00,58.5,53.6,30.29,SSE,158,0.0,4.0,84,0.00,,,0.08,meteohub,2013-08-18 01:02:00,
2013-08-17 21:07:00,58.5,53.6,30.29,ESE,112,3.0,4.0,84,0.00,,,0.08,meteohub,2013-08-18 01:07:00,
2013-08-17 21:12:00,58.5,53.6,30.29,East,90,1.0,4.0,84,-99.99,,,0.08,meteohub,2013-08-18 01:12:00,
2013-08-17 21:17:00,58.6,53.8,30.29,SSE,158,2.0,3.0,84,-99.99,,,0.08,meteohub,2013-08-18 01:17:00,
2013-08-17 21:22:00,58.6,53.8,30.29,SE,135,2.0,3.0,84,-99.99,,,0.08,meteohub,2013-08-18 01:22:00,
2013-08-17 21:27:00,58.6,53.8,30.29,SSE,158,0.0,3.0,84,-99.99,,,0.08,meteohub,2013-08-18 01:27:00,
2013-08-17 21:32:00,58.6,53.8,30.29,SSE,158,3.0,3.0,84,-99.99,,,0.08,meteohub,2013-08-18 01:32:00,
2013-08-17 21:37:00,58.6,53.8,30.29,SSE,158,4.0,4.0,84,-99.99,,,0.08,meteohub,2013-08-18 01:37:00,
2013-08-17 21:42:00,58.5,53.6,30.29,SSE,158,2.0,5.0,84,-99.99,,,0.08,meteohub,2013-08-18 01:42:00,
2013-08-17 21:47:00,58.5,53.6,30.29,SSE,158,3.0,5.0,84,-99.99,,,0.08,meteohub,2013-08-18 01:47:00,
2013-08-17 21:52:00,58.5,53.6,30.29,ESE,112,3.0,5.0,84,-99.99,,,0.08,meteohub,2013-08-18 01:52:00,
2013-08-17 21:57:00,58.5,53.6,30.29,East,90,2.0,4.0,84,0.00,,,0.25,meteohub,2013-08-18 01:57:00,
2013-08-17 22:02:00,58.5,53.6,30.29,SSE,158,0.0,3.0,84,0.00,,,0.25,meteohub,2013-08-18 02:02:00,
2013-08-17 22:07:00,58.5,53.6,30.29,SSE,158,2.0,3.0,84,0.00,,,0.25,meteohub,2013-08-18 02:07:00,
2013-08-17 22:12:00,58.5,53.6,30.29,SSE,158,4.0,4.0,84,0.00,,,0.25,meteohub,2013-08-18 02:12:00,
2013-08-17 22:17:00,58.5,53.6,30.29,SSE,158,6.0,6.0,84,0.00,,,0.25,meteohub,2013-08-18 02:17:00,
2013-08-17 22:22:00,58.3,53.4,30.29,SSE,158,6.0,8.0,84,0.00,,,0.25,meteohub,2013-08-18 02:22:00,
2013-08-17 22:27:00,58.3,53.4,30.29,SSE,158,4.0,8.0,84,0.00,,,0.25,meteohub,2013-08-18 02:27:00,
2013-08-17 22:32:00,58.3,53.4,30.29,SSE,158,6.0,8.0,84,0.00,,,0.25,meteohub,2013-08-18 02:32:00,
2013-08-17 22:37:00,58.3,53.4,30.29,SSW,202,2.0,9.0,84,0.00,,,0.25,meteohub,2013-08-18 02:37:00,
2013-08-17 22:41:00,58.3,53.8,30.29,SSE,158,3.0,9.0,85,0.00,,,0.25,meteohub,2013-08-18 02:41:00,
2013-08-17 22:47:00,58.3,53.8,30.29,SSW,202,2.0,8.0,85,0.00,,,0.25,meteohub,2013-08-18 02:47:00,
2013-08-17 22:52:00,58.3,53.8,30.29,South,180,4.0,7.0,85,0.00,,,0.25,meteohub,2013-08-18 02:52:00,
2013-08-17 22:57:00,58.3,53.8,30.29,ESE,112,5.0,11.0,85,0.00,,,0.25,meteohub,2013-08-18 02:57:00,
2013-08-17 23:02:00,58.3,54.1,30.29,SSE,158,5.0,11.0,86,0.00,,,0.25,meteohub,2013-08-18 03:02:00,
2013-08-17 23:07:00,58.3,54.1,30.29,SSE,158,4.0,11.0,86,0.00,,,0.25,meteohub,2013-08-18 03:07:00,
2013-08-17 23:12:00,58.3,54.1,30.29,SSE,158,3.0,6.0,86,0.00,,,0.25,meteohub,2013-08-18 03:12:00,
2013-08-17 23:17:00,58.3,54.1,30.29,South,180,1.0,6.0,86,0.00,,,0.25,meteohub,2013-08-18 03:17:00,
2013-08-17 23:22:00,58.3,54.1,30.29,SSE,158,5.0,6.0,86,0.00,,,0.25,meteohub,2013-08-18 03:22:00,
2013-08-17 23:27:00,58.3,54.1,30.29,South,180,4.0,6.0,86,0.00,,,0.25,meteohub,2013-08-18 03:27:00,
2013-08-17 23:32:00,58.1,54.0,30.29,SE,135,3.0,6.0,86,0.00,,,0.25,meteohub,2013-08-18 03:32:00,
2013-08-17 23:37:00,58.1,54.0,30.29,SSW,202,3.0,6.0,86,-99.99,,,0.25,meteohub,2013-08-18 03:37:00,
2013-08-17 23:42:00,58.1,54.0,30.29,WSW,248,2.0,7.0,86,-99.99,,,0.25,meteohub,2013-08-18 03:42:00,
2013-08-17 23:47:00,58.1,54.3,30.29,SSE,158,5.0,7.0,87,-99.99,,,0.25,meteohub,2013-08-18 03:47:00,
2013-08-17 23:52:00,58.1,54.3,30.29,SSE,158,2.0,6.0,87,-99.99,,,0.25,meteohub,2013-08-18 03:52:00,
2013-08-17 23:57:00,58.1,54.3,30.29,SE,135,4.0,6.0,87,-99.99,,,0.25,meteohub,2013-08-18 03:57:00,